Time;durP1;ratioP1;P1;durP2;ratioP2;P2;SDS_P1;SDS_P2;PMS_P1;PMS_P2;Temp;Humidity;BMP_temperature;BMP_pressure;BME280_temperature;BME280_humidity;BME280_pressure;Samples;Min_cycle;Max_cycle;Signal;HPM_P1;HPM_P2
2022/04/17 00:00:16;;;;;;;25.37;13.98;;;;;;;2.22;83.21;99171.60;1729807;82;20980;-56
2022/04/17 00:02:44;;;;;;;34.27;18.40;;;;;;;2.11;83.15;99168.64;1726613;82;20977;-56
2022/04/17 00:05:10;;;;;;;30.52;16.75;;;;;;;2.07;84.35;99172.75;1747216;82;21466;-56
2022/04/17 00:07:35;;;;;;;27.20;16.00;;;;;;;2.09;84.23;99170.69;1747392;82;20893;-56
2022/04/17 00:10:02;;;;;;;25.65;12.90;;;;;;;2.12;86.73;99179.64;1747255;82;22251;-56
2022/04/17 00:12:28;;;;;;;30.68;15.35;;;;;;;2.08;84.11;99164.52;1747202;82;21000;-56
2022/04/17 00:14:54;;;;;;;26.65;14.43;;;;;;;2.07;85.97;99171.41;1747193;82;21559;-56
2022/04/17 00:17:20;;;;;;;23.80;13.70;;;;;;;2.05;87.51;99163.59;1747238;82;20988;-56
2022/04/17 00:19:46;;;;;;;26.37;14.68;;;;;;;2.06;86.66;99166.58;1747208;82;20983;-56
2022/04/17 00:22:13;;;;;;;28.00;14.87;;;;;;;2.04;87.82;99173.94;1747283;82;21459;-56
2022/04/17 00:24:40;;;;;;;23.92;13.62;;;;;;;2.02;88.61;99172.50;1747092;82;21027;-56
2022/04/17 00:27:05;;;;;;;29.98;17.75;;;;;;;2.00;86.66;99163.85;1747314;81;20997;-56
2022/04/17 00:29:31;;;;;;;27.75;15.45;;;;;;;1.96;84.96;99161.55;1745313;82;20924;-56
2022/04/17 00:31:57;;;;;;;45.03;21.73;;;;;;;1.87;85.42;99168.08;1747467;82;20878;-56
2022/04/17 00:34:24;;;;;;;38.58;18.60;;;;;;;1.87;85.12;99165.92;1746994;82;21794;-56
2022/04/17 00:36:50;;;;;;;27.87;17.50;;;;;;;1.91;86.69;99172.54;1739485;82;21039;-56
2022/04/17 00:39:16;;;;;;;34.23;18.67;;;;;;;1.96;85.72;99168.23;1728638;81;21023;-56
2022/04/17 00:41:42;;;;;;;26.20;15.25;;;;;;;2.00;85.68;99163.85;1747436;82;20939;-56
2022/04/17 00:44:12;;;;;;;29.87;14.47;;;;;;;1.97;86.02;99157.06;1747366;82;21425;-56
2022/04/17 00:46:40;;;;;;;30.25;16.93;;;;;;;1.92;84.46;99159.48;1741449;82;21545;-56
2022/04/17 00:49:07;;;;;;;27.42;15.23;;;;;;;1.83;85.23;99157.99;1740777;82;21031;-56
2022/04/17 00:51:34;;;;;;;34.18;17.55;;;;;;;1.77;88.35;99158.25;1732489;82;20964;-55
2022/04/17 00:54:02;;;;;;;32.58;16.25;;;;;;;1.77;87.02;99155.58;1732370;81;21396;-56
2022/04/17 00:56:28;;;;;;;25.40;14.53;;;;;;;1.79;88.30;99158.05;1730259;82;20972;-56
2022/04/17 00:58:54;;;;;;;26.50;14.18;;;;;;;1.73;85.81;99157.52;1732822;81;21426;-56
2022/04/17 01:01:20;;;;;;;26.95;14.20;;;;;;;1.62;85.37;99153.03;1730443;82;20937;-56
2022/04/17 01:03:46;;;;;;;29.50;16.42;;;;;;;1.55;85.63;99160.67;1737011;82;20945;-56
2022/04/17 01:06:12;;;;;;;26.42;15.00;;;;;;;1.54;87.83;99166.53;1747258;82;21055;-56
2022/04/17 01:08:41;;;;;;;25.48;14.90;;;;;;;1.55;88.98;99160.16;1747083;82;21817;-56
2022/04/17 01:11:09;;;;;;;31.02;15.93;;;;;;;1.57;87.13;99164.80;1731976;82;21034;-56
2022/04/17 01:13:38;;;;;;;29.07;15.93;;;;;;;1.55;88.92;99155.33;1728137;81;20965;-56
2022/04/17 01:16:05;;;;;;;31.97;16.65;;;;;;;1.52;89.43;99153.86;1724915;82;21004;-56
2022/04/17 01:18:52;;;;;;;28.07;14.33;;;;;;;1.55;87.87;99156.67;1729698;82;21408;-56
2022/04/17 01:21:18;;;;;;;22.55;12.88;;;;;;;1.54;90.25;99153.66;1718713;82;21024;-56
2022/04/17 01:29:12;;;;;;;27.67;13.28;;;;;;;1.32;88.88;99149.70;1740653;82;21067;-56
2022/04/17 01:31:38;;;;;;;27.73;16.02;;;;;;;1.26;89.54;99142.95;1734203;82;20869;-56
2022/04/17 01:34:04;;;;;;;19.40;11.60;;;;;;;1.22;90.26;99146.53;1747325;82;21140;-56
2022/04/17 01:36:31;;;;;;;24.07;12.70;;;;;;;1.17;87.46;99135.59;1741610;82;21442;-56
2022/04/17 01:38:57;;;;;;;23.35;12.37;;;;;;;0.99;86.41;99141.39;1731359;81;21442;-55
2022/04/17 01:41:23;;;;;;;21.93;12.53;;;;;;;0.84;86.97;99137.44;1747399;82;20893;-56
2022/04/17 01:43:49;;;;;;;24.55;13.30;;;;;;;0.79;86.88;99135.04;1747099;82;20885;-56
2022/04/17 01:46:14;;;;;;;21.85;11.95;;;;;;;0.78;88.89;99144.89;1747749;82;20979;-56
2022/04/17 01:48:41;;;;;;;22.55;11.28;;;;;;;0.76;88.77;99140.22;1747141;82;21064;-56
2022/04/17 01:51:07;;;;;;;18.75;10.48;;;;;;;0.72;87.55;99140.30;1747369;82;21060;-56
2022/04/17 01:53:33;;;;;;;22.50;10.48;;;;;;;0.62;86.38;99138.96;1747311;82;20901;-56
2022/04/17 01:56:00;;;;;;;22.77;11.28;;;;;;;0.48;86.90;99143.31;1747648;82;20862;-56
2022/04/17 01:58:26;;;;;;;22.40;12.05;;;;;;;0.46;87.25;99136.01;1747213;82;21000;-56
2022/04/17 02:00:52;;;;;;;21.20;11.60;;;;;;;0.45;88.43;99134.36;1747565;82;22185;-56
2022/04/17 02:03:17;;;;;;;25.90;13.68;;;;;;;0.44;86.97;99138.87;1747373;82;20874;-56
2022/04/17 02:05:43;;;;;;;26.73;13.03;;;;;;;0.39;90.44;99137.77;1747564;82;20872;-56
2022/04/17 02:08:09;;;;;;;23.22;12.58;;;;;;;0.36;90.59;99141.64;1747448;82;21448;-56
2022/04/17 02:10:35;;;;;;;23.20;12.90;;;;;;;0.36;89.35;99130.16;1747592;82;20972;-55
2022/04/17 02:13:01;;;;;;;24.82;14.58;;;;;;;0.33;88.59;99138.50;1747576;82;21387;-56
2022/04/17 02:15:27;;;;;;;30.08;15.00;;;;;;;0.32;87.51;99141.68;1747481;82;20937;-56
2022/04/17 02:17:53;;;;;;;28.55;16.05;;;;;;;0.26;91.08;99135.78;1747386;81;21000;-56
2022/04/17 02:20:19;;;;;;;25.65;13.93;;;;;;;0.28;89.44;99139.91;1747603;82;21027;-56
2022/04/17 02:22:45;;;;;;;22.58;12.93;;;;;;;0.27;90.03;99139.59;1747470;82;20882;-56
2022/04/17 02:25:11;;;;;;;21.65;13.00;;;;;;;0.23;92.07;99137.47;1747391;82;21184;-56
2022/04/17 02:27:37;;;;;;;21.68;12.25;;;;;;;0.21;91.44;99135.50;1747186;82;20932;-56
2022/04/17 02:30:08;;;;;;;26.70;12.58;;;;;;;0.20;89.99;99136.52;1745404;82;20849;-55
2022/04/17 02:32:34;;;;;;;25.65;14.40;;;;;;;0.14;89.74;99135.41;1747434;82;21248;-56
2022/04/17 02:35:00;;;;;;;48.58;22.07;;;;;;;0.12;88.76;99136.61;1746787;82;21032;-55
2022/04/17 02:37:28;;;;;;;32.20;15.50;;;;;;;0.09;88.43;99137.00;1729885;82;21792;-56
2022/04/17 02:39:56;;;;;;;27.20;14.13;;;;;;;0.05;88.56;99134.37;1729998;82;20991;-56
2022/04/17 02:42:22;;;;;;;31.90;17.87;;;;;;;-0.01;89.67;99133.25;1730031;82;21011;-56
2022/04/17 02:44:47;;;;;;;32.73;17.17;;;;;;;-0.04;91.80;99137.63;1730156;82;21000;-56
2022/04/17 02:49:58;;;;;;;24.98;13.53;;;;;;;-0.04;90.66;99131.80;1728454;82;22162;-57
2022/04/17 02:52:24;;;;;;;29.20;14.73;;;;;;;-0.08;90.61;99134.52;1744526;82;20862;-56
2022/04/17 02:54:50;;;;;;;24.90;12.18;;;;;;;-0.10;91.55;99136.52;1747335;82;20888;-57
2022/04/17 02:57:16;;;;;;;22.87;13.72;;;;;;;-0.10;90.31;99138.36;1747486;82;20905;-56
2022/04/17 02:59:42;;;;;;;29.55;14.30;;;;;;;-0.12;90.32;99133.73;1747620;82;21020;-57
2022/04/17 03:07:36;;;;;;;22.90;12.90;;;;;;;-0.20;93.65;99132.48;1747306;82;21067;-56
2022/04/17 03:10:03;;;;;;;26.02;13.03;;;;;;;-0.17;90.97;99128.97;1747296;82;20873;-57
2022/04/17 03:12:29;;;;;;;21.02;12.93;;;;;;;-0.17;91.70;99130.77;1747346;82;21591;-57
2022/04/17 03:14:55;;;;;;;34.35;18.35;;;;;;;-0.13;90.67;99129.41;1747446;82;21530;-57
2022/04/17 03:17:21;;;;;;;27.87;15.55;;;;;;;-0.13;89.75;99135.56;1747452;82;20932;-58
2022/04/17 03:19:47;;;;;;;22.20;13.13;;;;;;;-0.10;92.42;99141.03;1747345;82;20945;-57
2022/04/17 03:22:14;;;;;;;30.43;15.38;;;;;;;-0.11;92.86;99136.71;1747376;82;20999;-57
2022/04/17 03:24:40;;;;;;;24.40;13.08;;;;;;;-0.12;93.05;99136.39;1742334;82;21075;-57
2022/04/17 03:27:06;;;;;;;34.40;17.02;;;;;;;-0.15;91.57;99136.27;1732017;82;21523;-57
2022/04/17 03:29:32;;;;;;;39.73;18.85;;;;;;;-0.18;90.48;99133.95;1732352;82;20947;-57
2022/04/17 03:31:58;;;;;;;32.90;15.50;;;;;;;-0.21;91.29;99134.33;1729847;82;21492;-57
2022/04/17 03:34:24;;;;;;;25.48;13.60;;;;;;;-0.19;91.14;99137.63;1730232;82;20937;-57
2022/04/17 03:36:50;;;;;;;26.27;13.10;;;;;;;-0.21;91.63;99136.98;1740228;82;21589;-57
2022/04/17 03:39:16;;;;;;;37.88;15.05;;;;;;;-0.27;90.54;99137.71;1724590;82;22209;-56
2022/04/17 03:41:42;;;;;;;25.60;14.20;;;;;;;-0.32;89.94;99134.79;1732279;82;20861;-57
2022/04/17 03:44:08;;;;;;;36.15;17.85;;;;;;;-0.33;89.71;99135.80;1733882;82;21634;-57
2022/04/17 03:46:34;;;;;;;43.38;23.40;;;;;;;-0.36;90.74;99134.81;1747208;82;21055;-57
2022/04/17 03:49:00;;;;;;;35.70;20.27;;;;;;;-0.34;91.17;99134.98;1747365;82;21560;-56
2022/04/17 03:51:26;;;;;;;31.20;17.48;;;;;;;-0.36;92.63;99135.64;1747543;82;21880;-56
2022/04/17 03:53:51;;;;;;;30.43;16.12;;;;;;;-0.38;90.50;99127.02;1747252;82;20928;-57
2022/04/17 03:56:18;;;;;;;50.83;23.62;;;;;;;-0.44;90.53;99135.72;1747312;82;20972;-56
2022/04/17 03:58:44;;;;;;;51.08;23.42;;;;;;;-0.47;91.43;99134.77;1747300;82;20901;-57
2022/04/17 04:01:09;;;;;;;37.67;19.60;;;;;;;-0.48;92.67;99143.77;1747538;82;20870;-57
2022/04/17 04:03:37;;;;;;;36.58;18.57;;;;;;;-0.46;91.80;99143.58;1741735;81;22100;-56
2022/04/17 04:06:04;;;;;;;30.10;15.95;;;;;;;-0.53;91.64;99147.47;1747352;82;21071;-56
2022/04/17 04:08:30;;;;;;;41.90;19.82;;;;;;;-0.49;91.65;99147.95;1747167;82;21005;-56
2022/04/17 04:10:56;;;;;;;30.40;14.93;;;;;;;-0.50;92.50;99140.47;1747505;82;21020;-57
2022/04/17 04:13:22;;;;;;;25.75;14.80;;;;;;;-0.47;91.46;99146.75;1741789;81;21494;-56
2022/04/17 04:15:48;;;;;;;22.10;13.20;;;;;;;-0.46;91.56;99147.58;1729953;81;21519;-56
2022/04/17 04:18:14;;;;;;;24.45;13.65;;;;;;;-0.43;90.51;99152.52;1747151;82;20916;-56
2022/04/17 04:20:40;;;;;;;28.52;13.55;;;;;;;-0.47;90.10;99152.08;1747316;82;20976;-56
2022/04/17 04:23:06;;;;;;;32.60;17.92;;;;;;;-0.48;90.50;99146.43;1747424;82;21016;-57
2022/04/17 04:25:32;;;;;;;28.25;16.00;;;;;;;-0.46;91.24;99148.91;1747276;82;20901;-57
2022/04/17 04:30:43;;;;;;;28.00;14.78;;;;;;;-0.34;90.20;99148.30;1744505;82;22092;-56
2022/04/17 04:33:09;;;;;;;25.70;13.68;;;;;;;-0.22;89.46;99149.16;1733065;82;21065;-56
2022/04/17 04:35:35;;;;;;;24.18;15.00;;;;;;;-0.23;90.09;99151.00;1730068;82;20813;-56
2022/04/17 04:38:01;;;;;;;41.25;18.45;;;;;;;-0.17;89.88;99156.08;1741746;82;20980;-57
2022/04/17 04:40:31;;;;;;;30.20;17.45;;;;;;;-0.15;91.23;99155.42;1747297;82;21549;-56
2022/04/17 04:42:58;;;;;;;42.55;19.95;;;;;;;-0.08;90.94;99151.84;1744040;81;21059;-56
2022/04/17 04:48:09;;;;;;;48.05;27.05;;;;;;;0.01;91.08;99150.42;1747284;82;21592;-56
2022/04/17 04:50:35;;;;;;;36.85;22.35;;;;;;;0.12;90.31;99154.77;1737590;82;20951;-57
2022/04/17 04:53:01;;;;;;;41.00;21.87;;;;;;;0.12;91.34;99150.77;1730122;82;21582;-57
2022/04/17 04:55:28;;;;;;;40.65;24.70;;;;;;;0.13;91.26;99147.59;1729897;82;21082;-57
2022/04/17 04:57:54;;;;;;;36.75;22.22;;;;;;;0.15;90.82;99153.56;1730258;82;21039;-57
2022/04/17 05:00:20;;;;;;;32.95;19.60;;;;;;;0.17;90.92;99155.05;1730143;82;20852;-56
2022/04/17 05:02:46;;;;;;;32.90;18.95;;;;;;;0.13;91.31;99155.59;1746129;82;20976;-57
2022/04/17 05:05:12;;;;;;;39.03;22.85;;;;;;;0.13;90.86;99156.42;1747411;82;21592;-57
2022/04/17 05:07:38;;;;;;;30.25;20.45;;;;;;;0.16;90.87;99157.37;1747469;82;22562;-57
2022/04/17 05:10:08;;;;;;;44.58;23.30;;;;;;;0.19;90.91;99153.53;1747186;82;21008;-57
2022/04/17 05:12:36;;;;;;;37.48;22.35;;;;;;;0.19;91.68;99151.69;1747100;82;21455;-57
2022/04/17 05:15:03;;;;;;;30.00;17.00;;;;;;;0.24;91.81;99155.11;1747309;82;21115;-57
2022/04/17 05:17:29;;;;;;;31.27;18.62;;;;;;;0.28;90.14;99154.56;1747550;82;22245;-57
2022/04/17 05:19:54;;;;;;;29.75;18.12;;;;;;;0.27;89.46;99154.25;1747230;82;21007;-57
2022/04/17 05:22:22;;;;;;;27.85;17.10;;;;;;;0.20;89.22;99156.00;1747464;82;20979;-56
2022/04/17 05:24:48;;;;;;;32.13;19.87;;;;;;;0.20;90.71;99160.00;1747056;80;21048;-57
2022/04/17 05:27:14;;;;;;;56.55;35.88;;;;;;;0.23;91.44;99161.46;1747380;82;20878;-57
2022/04/17 05:29:40;;;;;;;40.70;22.80;;;;;;;0.34;91.16;99166.31;1738794;82;22060;-57
2022/04/17 05:32:07;;;;;;;33.48;17.85;;;;;;;0.42;92.47;99166.72;1732891;82;21012;-57
2022/04/17 05:34:35;;;;;;;33.80;20.17;;;;;;;0.54;91.79;99162.06;1730223;82;21003;-56
2022/04/17 05:37:02;;;;;;;35.65;21.07;;;;;;;0.61;91.71;99163.48;1739180;81;20984;-57
2022/04/17 05:39:28;;;;;;;39.85;22.60;;;;;;;0.75;91.34;99157.25;1749814;81;21457;-56
2022/04/17 05:41:54;;;;;;;35.95;20.08;;;;;;;0.87;91.37;99163.45;1747563;82;21387;-56
2022/04/17 05:44:20;;;;;;;38.92;21.65;;;;;;;1.09;90.68;99158.41;1747177;82;20984;-57
2022/04/17 05:46:46;;;;;;;35.52;22.40;;;;;;;1.25;90.48;99156.82;1747388;82;20865;-57
2022/04/17 05:49:12;;;;;;;40.45;22.98;;;;;;;1.43;90.22;99155.53;1747203;82;21012;-57
2022/04/17 05:51:38;;;;;;;31.42;20.35;;;;;;;1.64;90.20;99156.33;1747398;82;21009;-56
2022/04/17 05:54:07;;;;;;;63.85;43.58;;;;;;;1.84;89.18;99160.97;1747248;82;22218;-57
2022/04/17 05:56:34;;;;;;;40.15;22.62;;;;;;;1.92;89.21;99152.29;1747413;82;21484;-57
2022/04/17 05:59:00;;;;;;;42.88;25.75;;;;;;;2.09;88.86;99154.65;1747334;82;21481;-57
2022/04/17 06:01:26;;;;;;;39.70;24.00;;;;;;;2.23;88.22;99151.03;1747186;82;20854;-57
2022/04/17 06:03:52;;;;;;;34.40;21.50;;;;;;;2.29;87.47;99146.72;1738598;81;20865;-57
2022/04/17 06:06:18;;;;;;;33.95;21.85;;;;;;;2.44;87.26;99148.23;1727604;82;21599;-57
2022/04/17 06:08:46;;;;;;;33.42;17.10;;;;;;;2.60;86.92;99137.69;1736580;82;20957;-57
2022/04/17 06:11:12;;;;;;;28.90;17.65;;;;;;;2.67;86.38;99140.39;1747392;82;21016;-57
2022/04/17 06:13:38;;;;;;;28.83;18.05;;;;;;;2.67;86.80;99139.87;1747327;82;21493;-58
2022/04/17 06:16:05;;;;;;;46.48;26.27;;;;;;;2.77;87.42;99140.83;1747672;82;20984;-57
2022/04/17 06:18:31;;;;;;;57.10;35.15;;;;;;;2.93;86.31;99145.81;1747414;82;21487;-56
2022/04/17 06:20:57;;;;;;;46.90;27.75;;;;;;;3.10;86.37;99140.89;1747497;82;21115;-57
2022/04/17 06:23:22;;;;;;;44.60;24.20;;;;;;;3.22;84.84;99136.56;1747372;82;21465;-57
2022/04/17 06:25:48;;;;;;;42.48;23.45;;;;;;;3.47;84.76;99143.99;1745758;82;20878;-57
2022/04/17 06:28:14;;;;;;;37.42;26.27;;;;;;;3.60;84.58;99141.33;1733057;82;21605;-57
2022/04/17 06:30:40;;;;;;;57.90;51.15;;;;;;;3.75;84.23;99146.44;1726689;82;21462;-57
2022/04/17 06:33:06;;;;;;;38.55;23.77;;;;;;;4.03;82.53;99147.55;1743590;81;21773;-58
2022/04/17 06:35:32;;;;;;;27.65;16.62;;;;;;;4.47;80.63;99150.29;1743823;82;20865;-57
2022/04/17 06:38:01;;;;;;;470.05;207.10;;;;;;;4.87;77.46;99155.48;1730576;82;21453;-58
2022/04/17 06:40:29;;;;;;;69.65;45.60;;;;;;;5.21;77.66;99154.23;1747501;82;21567;-57
2022/04/17 06:42:58;;;;;;;38.48;27.87;;;;;;;5.34;75.29;99150.61;1747421;82;21678;-57
2022/04/17 06:45:27;;;;;;;25.08;16.23;;;;;;;5.49;73.55;99144.92;1747270;82;21048;-57
2022/04/17 06:47:54;;;;;;;;;;;;;;;5.81;78.81;99153.23;1750092;82;21434;-57
2022/04/17 06:50:20;;;;;;;22.93;16.17;;;;;;;5.75;70.10;99147.37;1747285;82;20179;-57
2022/04/17 06:52:46;;;;;;;26.62;19.42;;;;;;;5.92;71.06;99148.48;1747634;82;21441;-57
2022/04/17 06:55:12;;;;;;;19.85;13.62;;;;;;;6.02;71.81;99147.15;1747383;82;21090;-57
2022/04/17 06:57:45;;;;;;;26.70;15.25;;;;;;;6.43;74.19;99144.62;1747377;82;20963;-57
2022/04/17 07:00:12;;;;;;;34.38;24.70;;;;;;;7.16;74.60;99138.23;1747374;82;20972;-57
2022/04/17 07:02:39;;;;;;;19.67;14.75;;;;;;;7.78;64.92;99140.59;1747436;82;22095;-58
2022/04/17 07:05:07;;;;;;;21.15;16.17;;;;;;;8.34;63.42;99134.53;1740169;82;21005;-57
2022/04/17 07:07:33;;;;;;;13.20;9.78;;;;;;;8.74;62.64;99139.98;1745416;82;21798;-57
2022/04/17 07:10:00;;;;;;;54.55;32.23;;;;;;;9.16;59.10;99133.46;1747312;81;21000;-56
2022/04/17 07:12:26;;;;;;;18.32;12.95;;;;;;;9.70;61.04;99138.69;1747551;82;21005;-57
2022/04/17 07:14:52;;;;;;;14.00;9.80;;;;;;;10.36;59.74;99136.98;1747441;82;20885;-57
2022/04/17 07:17:20;;;;;;;16.95;11.33;;;;;;;10.89;62.23;99131.38;1747666;82;21018;-57
2022/04/17 07:19:46;;;;;;;23.55;13.38;;;;;;;11.61;64.39;99121.18;1747230;82;21048;-57
2022/04/17 07:22:13;;;;;;;27.37;17.75;;;;;;;11.40;53.65;99125.63;1747490;82;20881;-57
2022/04/17 07:24:43;;;;;;;12.05;8.15;;;;;;;11.96;56.16;99119.29;1747005;82;21012;-57
2022/04/17 07:27:10;;;;;;;21.27;13.30;;;;;;;12.59;54.29;99123.71;1747328;81;21537;-57
2022/04/17 07:29:36;;;;;;;35.03;28.25;;;;;;;12.81;51.78;99126.77;1739306;82;21488;-57
2022/04/17 07:32:03;;;;;;;17.70;9.05;;;;;;;12.34;47.85;99124.41;1730189;82;21436;-57
2022/04/17 07:34:29;;;;;;;14.98;10.32;;;;;;;12.77;51.63;99123.77;1744993;82;21481;-57
2022/04/17 07:36:55;;;;;;;9.83;7.25;;;;;;;12.89;47.22;99114.00;1738813;82;20959;-57
2022/04/17 07:39:22;;;;;;;11.57;8.20;;;;;;;12.65;49.11;99117.77;1725355;82;21484;-57
2022/04/17 07:41:48;;;;;;;8.10;4.53;;;;;;;12.61;45.70;99120.18;1739448;82;21072;-57
2022/04/17 07:44:14;;;;;;;10.80;9.68;;;;;;;11.41;39.10;99116.41;1747513;82;22414;-57
2022/04/17 07:46:43;;;;;;;5.35;4.37;;;;;;;10.51;40.73;99124.67;1747355;81;20882;-57
2022/04/17 07:49:10;;;;;;;8.93;4.62;;;;;;;10.00;41.08;99122.61;1746786;81;33306;-57
2022/04/17 07:51:35;;;;;;;6.58;4.80;;;;;;;9.61;40.83;99117.98;1747543;82;20889;-57
2022/04/17 07:54:02;;;;;;;12.88;11.63;;;;;;;9.25;41.90;99115.23;1747211;82;20977;-56
2022/04/17 07:56:28;;;;;;;12.07;8.63;;;;;;;8.65;41.57;99108.19;1742411;82;21544;-57
2022/04/17 07:58:54;;;;;;;12.58;5.78;;;;;;;8.24;43.97;99101.10;1727358;82;20932;-57
2022/04/17 08:01:21;;;;;;;19.32;9.53;;;;;;;7.91;45.17;99100.67;1730028;82;21010;-56
2022/04/17 08:03:47;;;;;;;9.25;6.08;;;;;;;8.22;44.30;99104.58;1730271;82;21043;-56
2022/04/17 08:06:16;;;;;;;8.00;3.83;;;;;;;7.21;45.23;99110.08;1730026;82;20868;-57
2022/04/17 08:08:43;;;;;;;11.85;7.17;;;;;;;6.98;45.06;99109.48;1730117;82;21141;-56
2022/04/17 08:11:09;;;;;;;33.13;17.23;;;;;;;6.58;46.34;99117.31;1729936;82;21003;-56
2022/04/17 08:13:35;;;;;;;14.98;7.58;;;;;;;6.29;46.73;99113.52;1730126;82;21174;-56
2022/04/17 08:16:02;;;;;;;9.05;5.00;;;;;;;6.36;48.03;99113.44;1733493;82;21016;-57
2022/04/17 08:18:28;;;;;;;11.88;5.20;;;;;;;6.59;48.45;99103.31;1747150;81;21473;-56
2022/04/17 08:20:54;;;;;;;8.48;5.72;;;;;;;6.81;48.42;99102.28;1747247;81;21072;-57
2022/04/17 08:23:20;;;;;;;7.00;4.65;;;;;;;6.79;47.59;99104.67;1742189;81;21008;-57
2022/04/17 08:25:46;;;;;;;13.53;8.23;;;;;;;6.93;47.79;99100.46;1744905;82;20901;-56
2022/04/17 08:28:13;;;;;;;15.90;7.87;;;;;;;6.98;46.96;99101.39;1747301;81;21008;-57
2022/04/17 08:30:38;;;;;;;11.50;7.00;;;;;;;7.39;46.56;99098.38;1726540;81;21019;-57
2022/04/17 08:33:07;;;;;;;8.75;5.33;;;;;;;8.30;45.74;99098.81;1733281;82;21149;-57
2022/04/17 08:35:33;;;;;;;9.10;6.08;;;;;;;8.53;44.76;99091.17;1729968;82;20995;-57
2022/04/17 08:38:01;;;;;;;7.58;5.58;;;;;;;8.70;43.30;99083.41;1738062;81;20944;-57
2022/04/17 08:40:27;;;;;;;10.08;5.30;;;;;;;9.54;42.42;99081.34;1731366;82;21047;-56
2022/04/17 08:42:54;;;;;;;7.67;5.00;;;;;;;9.47;40.52;99073.91;1730017;82;21348;-57
2022/04/17 08:45:20;;;;;;;6.83;4.83;;;;;;;9.30;41.78;99080.14;1724919;82;21359;-56
2022/04/17 08:47:46;;;;;;;9.18;3.55;;;;;;;9.31;42.83;99073.70;1735691;82;21000;-57
2022/04/17 08:50:14;;;;;;;7.10;4.40;;;;;;;9.37;41.53;99073.76;1747414;81;20977;-57
2022/04/17 08:52:41;;;;;;;7.60;3.92;;;;;;;9.28;39.01;99073.34;1747476;81;21273;-57
2022/04/17 08:55:08;;;;;;;6.47;3.42;;;;;;;9.65;37.12;99072.83;1747270;81;20989;-57
2022/04/17 08:57:34;;;;;;;2.67;1.90;;;;;;;9.24;37.60;99067.62;1747616;82;21875;-57
2022/04/17 09:00:00;;;;;;;4.58;2.70;;;;;;;9.09;37.74;99068.72;1747212;82;20952;-57
2022/04/17 09:02:26;;;;;;;6.72;3.85;;;;;;;8.72;37.83;99073.73;1720496;82;21000;-57
2022/04/17 09:04:52;;;;;;;9.05;4.42;;;;;;;8.50;38.82;99070.87;1747109;81;20853;-56
2022/04/17 09:07:18;;;;;;;7.95;3.85;;;;;;;8.20;39.50;99066.48;1737839;82;21034;-56
2022/04/17 09:09:53;;;;;;;6.47;2.72;;;;;;;8.58;37.98;99073.73;1727007;82;21447;-56
2022/04/17 09:12:26;;;;;;;5.10;3.33;;;;;;;8.28;39.12;99062.56;1751456;81;22135;-57
2022/04/17 09:14:55;;;;;;;3.52;2.00;;;;;;;8.02;39.05;99068.50;1746921;81;21024;-56
2022/04/17 09:17:32;;;;;;;8.58;2.50;;;;;;;7.86;38.94;99073.59;1747304;81;21009;-57
2022/04/17 09:19:58;;;;;;;4.08;2.05;;;;;;;8.32;39.59;99062.39;1747002;81;21398;-57
2022/04/17 09:22:25;;;;;;;4.20;2.65;;;;;;;8.56;38.12;99063.17;1747046;80;21514;-56
2022/04/17 09:24:51;;;;;;;4.22;1.77;;;;;;;9.52;36.46;99052.36;1747007;81;21075;-57
2022/04/17 09:27:17;;;;;;;3.67;2.15;;;;;;;9.37;37.49;99045.36;1746772;81;20889;-56
2022/04/17 09:29:43;;;;;;;3.17;1.82;;;;;;;9.73;37.17;99043.99;1740087;80;21553;-57
2022/04/17 09:32:15;;;;;;;3.52;2.80;;;;;;;9.96;37.20;99042.42;1734850;82;20971;-57
2022/04/17 09:34:55;;;;;;;10.32;4.58;;;;;;;10.26;37.55;99035.80;1733905;82;21098;-57
2022/04/17 09:37:23;;;;;;;2.17;1.70;;;;;;;10.30;37.80;99039.09;1727732;80;21004;-57
2022/04/17 09:39:52;;;;;;;5.45;2.55;;;;;;;10.32;37.15;99041.00;1729390;82;21012;-57
2022/04/17 09:42:25;;;;;;;3.15;2.08;;;;;;;12.35;34.29;99028.20;1747339;81;21008;-57
2022/04/17 09:44:54;;;;;;;2.50;1.98;;;;;;;12.02;31.89;99022.62;1747189;81;21118;-57
2022/04/17 09:47:27;;;;;;;3.12;2.10;;;;;;;12.97;29.68;99018.27;1747246;81;21550;-57
2022/04/17 09:50:02;;;;;;;4.00;2.65;;;;;;;13.69;32.54;99015.00;1747063;80;21417;-57
2022/04/17 09:52:31;;;;;;;3.58;2.30;;;;;;;12.56;31.94;99010.06;1746379;80;21023;-56
2022/04/17 09:55:00;;;;;;;3.02;2.10;;;;;;;12.14;33.59;99013.73;1747242;81;21462;-56
2022/04/17 09:57:31;;;;;;;3.95;2.25;;;;;;;11.99;34.58;99005.52;1736428;80;21035;-57
2022/04/17 09:59:59;;;;;;;4.55;1.90;;;;;;;11.16;34.24;99006.59;1739638;82;21511;-57
2022/04/17 10:02:26;;;;;;;6.05;2.60;;;;;;;10.62;33.57;98997.17;1745915;80;21008;-57
2022/04/17 10:04:52;;;;;;;4.33;2.02;;;;;;;10.07;35.72;99012.23;1747211;81;20989;-57
2022/04/17 10:07:19;;;;;;;3.05;2.00;;;;;;;9.15;36.29;99017.72;1747321;81;21004;-57
2022/04/17 10:09:46;;;;;;;2.87;2.08;;;;;;;9.03;36.97;99012.91;1746952;80;21056;-56
2022/04/17 10:12:19;;;;;;;3.65;2.22;;;;;;;8.54;36.49;99017.17;1747370;81;21513;-56
2022/04/17 10:14:40;;;;;;;2.52;1.62;;;;;;;7.87;38.93;99018.56;1745608;82;21004;-56
2022/04/17 10:17:07;;;;;;;2.87;2.02;;;;;;;8.20;39.08;99010.29;1747633;80;21414;-56
2022/04/17 10:19:33;;;;;;;5.47;2.35;;;;;;;8.21;38.99;99006.55;1742772;80;21048;-57
2022/04/17 10:22:01;;;;;;;5.90;2.62;;;;;;;8.10;38.94;99002.81;1737135;81;21654;-57
2022/04/17 10:24:27;;;;;;;4.67;2.83;;;;;;;8.23;38.40;99007.66;1747250;80;21902;-57
2022/04/17 10:26:54;;;;;;;4.33;2.40;;;;;;;8.27;38.77;99002.87;1747157;81;20936;-57
2022/04/17 10:29:37;;;;;;;6.17;3.42;;;;;;;8.73;38.93;98997.83;1746950;81;21429;-57
2022/04/17 10:32:29;;;;;;;4.20;2.12;;;;;;;8.82;37.97;98998.24;1747487;82;20974;-56
2022/04/17 10:35:34;;;;;;;3.12;2.15;;;;;;;8.97;37.05;98990.40;1747161;82;21064;-57
2022/04/17 10:38:25;;;;;;;3.12;2.10;;;;;;;9.13;37.94;98990.61;1726725;82;21542;-57
2022/04/17 10:41:04;;;;;;;5.90;2.80;;;;;;;9.62;36.42;98975.38;1745116;80;21072;-56
2022/04/17 10:43:50;;;;;;;11.00;3.15;;;;;;;9.60;36.94;98976.17;1747297;80;21501;-56
2022/04/17 10:46:21;;;;;;;3.65;2.20;;;;;;;9.79;37.81;98975.34;1747190;81;21040;-57
2022/04/17 10:48:50;;;;;;;2.75;2.10;;;;;;;9.71;37.64;98973.06;1747205;81;20992;-56
2022/04/17 10:51:25;;;;;;;3.22;2.15;;;;;;;9.74;36.84;98980.67;1747190;81;21545;-57
2022/04/17 10:54:04;;;;;;;8.18;2.67;;;;;;;9.56;37.01;98970.42;1746844;81;21491;-56
2022/04/17 10:56:38;;;;;;;5.05;1.90;;;;;;;9.82;37.53;98965.34;1747120;81;21012;-56
2022/04/17 10:59:17;;;;;;;7.53;3.52;;;;;;;9.59;36.73;98963.72;1746935;80;21012;-57
2022/04/17 11:01:55;;;;;;;5.22;2.45;;;;;;;9.23;37.61;98967.81;1720382;82;21067;-56
2022/04/17 11:04:40;;;;;;;4.35;2.55;;;;;;;9.11;36.31;98961.66;1747126;80;21552;-57
2022/04/17 11:07:12;;;;;;;4.40;3.15;;;;;;;8.94;37.40;98953.56;1746813;82;20988;-56
2022/04/17 11:09:41;;;;;;;3.65;2.22;;;;;;;8.62;37.84;98958.16;1747018;81;21052;-57
2022/04/17 11:12:27;;;;;;;10.90;7.05;;;;;;;8.64;37.49;98962.00;1746964;81;21407;-57
2022/04/17 11:15:05;;;;;;;13.30;8.00;;;;;;;8.38;38.56;98939.13;1747055;81;21001;-56
2022/04/17 11:17:32;;;;;;;14.50;7.17;;;;;;;8.38;38.56;98939.13;1736394;80;21502;-56
2022/04/17 11:20:00;;;;;;;8.80;5.00;;;;;;;8.57;39.60;98946.47;1704135;82;22159;-56
2022/04/17 11:22:33;;;;;;;4.55;3.62;;;;;;;8.55;39.30;98935.09;1743236;82;21457;-57
2022/04/17 11:25:06;;;;;;;4.75;3.12;;;;;;;9.08;39.73;98941.35;1733302;82;21066;-57
2022/04/17 11:27:49;;;;;;;5.37;2.85;;;;;;;8.96;38.57;98941.42;1744867;82;21000;-56
2022/04/17 11:30:20;;;;;;;8.58;5.92;;;;;;;9.14;39.09;98928.70;1737273;82;22217;-56
2022/04/17 11:32:48;;;;;;;6.03;2.85;;;;;;;9.14;39.09;98928.70;1734805;82;21400;-56
2022/04/17 11:35:19;;;;;;;3.98;2.12;;;;;;;9.08;39.29;98932.42;1733380;82;21632;-57
2022/04/17 11:37:54;;;;;;;5.22;2.50;;;;;;;9.30;39.00;98928.68;1729526;80;20977;-57
2022/04/17 11:40:22;;;;;;;4.47;2.90;;;;;;;9.54;38.18;98929.28;1745319;82;21044;-56
2022/04/17 11:42:53;;;;;;;3.42;2.40;;;;;;;9.52;37.62;98914.38;1744753;80;21449;-57
2022/04/17 11:45:27;;;;;;;3.30;2.45;;;;;;;9.84;38.15;98917.21;1734675;82;21079;-57
2022/04/17 11:47:54;;;;;;;15.08;10.38;;;;;;;9.76;37.89;98911.70;1735565;82;21048;-56
2022/04/17 11:50:23;;;;;;;32.45;22.82;;;;;;;9.51;37.08;98914.09;1747154;82;21077;-56